sensor_id;sensor_type;location;lat;lon;timestamp;temperature;humidity
57108;DHT22;42987;52.916;6.542;2022-09-09T00:04:31;14.60;99.90
57108;DHT22;42987;52.916;6.542;2022-09-09T00:07:21;14.60;99.90
57108;DHT22;42987;52.916;6.542;2022-09-09T00:13:16;14.50;99.90
57108;DHT22;42987;52.916;6.542;2022-09-09T00:16:02;14.50;99.90
57108;DHT22;42987;52.916;6.542;2022-09-09T00:19:28;14.50;99.90
57108;DHT22;42987;52.916;6.542;2022-09-09T00:21:39;14.40;99.90
57108;DHT22;42987;52.916;6.542;2022-09-09T00:24:29;14.40;99.90
57108;DHT22;42987;52.916;6.542;2022-09-09T00:27:06;14.30;99.90
57108;DHT22;42987;52.916;6.542;2022-09-09T00:32:44;14.30;99.90
57108;DHT22;42987;52.916;6.542;2022-09-09T00:37:39;14.20;99.90
57108;DHT22;42987;52.916;6.542;2022-09-09T00:40:35;14.20;99.90
57108;DHT22;42987;52.916;6.542;2022-09-09T00:43:33;14.20;99.90
57108;DHT22;42987;52.916;6.542;2022-09-09T00:51:16;14.10;99.90
57108;DHT22;42987;52.916;6.542;2022-09-09T00:56:57;14.10;99.90
57108;DHT22;42987;52.916;6.542;2022-09-09T01:02:31;14.10;99.90
57108;DHT22;42987;52.916;6.542;2022-09-09T01:05:07;14.10;99.90
57108;DHT22;42987;52.916;6.542;2022-09-09T01:07:37;14.00;99.90
57108;DHT22;42987;52.916;6.542;2022-09-09T01:10:22;14.00;99.90
57108;DHT22;42987;52.916;6.542;2022-09-09T01:12:52;14.00;99.90
57108;DHT22;42987;52.916;6.542;2022-09-09T01:15:25;14.10;99.90
57108;DHT22;42987;52.916;6.542;2022-09-09T01:18:08;14.10;99.90
57108;DHT22;42987;52.916;6.542;2022-09-09T01:26:28;14.10;99.90
57108;DHT22;42987;52.916;6.542;2022-09-09T01:28:55;14.10;99.90
57108;DHT22;42987;52.916;6.542;2022-09-09T01:31:55;14.10;99.90
57108;DHT22;42987;52.916;6.542;2022-09-09T01:34:24;14.20;99.90
57108;DHT22;42987;52.916;6.542;2022-09-09T01:37:08;14.20;99.90
57108;DHT22;42987;52.916;6.542;2022-09-09T01:39:36;14.20;99.90
57108;DHT22;42987;52.916;6.542;2022-09-09T01:42:04;14.20;99.90
57108;DHT22;42987;52.916;6.542;2022-09-09T01:44:31;14.20;99.90
57108;DHT22;42987;52.916;6.542;2022-09-09T01:46:57;14.20;99.90
57108;DHT22;42987;52.916;6.542;2022-09-09T01:49:23;14.20;99.90
57108;DHT22;42987;52.916;6.542;2022-09-09T01:51:54;14.20;99.90
57108;DHT22;42987;52.916;6.542;2022-09-09T01:54:23;14.20;99.90
57108;DHT22;42987;52.916;6.542;2022-09-09T01:56:56;14.20;99.90
57108;DHT22;42987;52.916;6.542;2022-09-09T01:59:40;14.20;99.90
57108;DHT22;42987;52.916;6.542;2022-09-09T02:02:17;14.30;99.90
57108;DHT22;42987;52.916;6.542;2022-09-09T02:04:52;14.30;99.90
57108;DHT22;42987;52.916;6.542;2022-09-09T02:07:42;14.30;99.90
57108;DHT22;42987;52.916;6.542;2022-09-09T02:12:44;14.40;99.90
57108;DHT22;42987;52.916;6.542;2022-09-09T02:15:23;14.50;99.90
57108;DHT22;42987;52.916;6.542;2022-09-09T02:17:52;14.50;99.90
57108;DHT22;42987;52.916;6.542;2022-09-09T02:20:37;14.50;99.90
57108;DHT22;42987;52.916;6.542;2022-09-09T02:23:05;14.60;99.90
57108;DHT22;42987;52.916;6.542;2022-09-09T02:25:33;14.60;99.90
57108;DHT22;42987;52.916;6.542;2022-09-09T02:28:06;14.60;99.90
57108;DHT22;42987;52.916;6.542;2022-09-09T02:30:34;14.60;99.90
57108;DHT22;42987;52.916;6.542;2022-09-09T02:33:04;14.70;99.90
57108;DHT22;42987;52.916;6.542;2022-09-09T02:35:33;14.60;99.90
57108;DHT22;42987;52.916;6.542;2022-09-09T02:38:08;14.70;99.90
57108;DHT22;42987;52.916;6.542;2022-09-09T02:40:34;14.70;99.90
57108;DHT22;42987;52.916;6.542;2022-09-09T02:43:00;14.70;99.90
57108;DHT22;42987;52.916;6.542;2022-09-09T02:45:41;14.70;99.90
57108;DHT22;42987;52.916;6.542;2022-09-09T02:48:21;14.70;99.90
57108;DHT22;42987;52.916;6.542;2022-09-09T02:53:21;14.70;99.90
57108;DHT22;42987;52.916;6.542;2022-09-09T02:55:58;14.70;99.90
57108;DHT22;42987;52.916;6.542;2022-09-09T02:58:26;14.70;99.90
57108;DHT22;42987;52.916;6.542;2022-09-09T03:00:52;14.70;99.90
57108;DHT22;42987;52.916;6.542;2022-09-09T03:03:19;14.70;99.90
57108;DHT22;42987;52.916;6.542;2022-09-09T03:05:46;14.70;99.90
57108;DHT22;42987;52.916;6.542;2022-09-09T03:08:12;14.70;99.90
57108;DHT22;42987;52.916;6.542;2022-09-09T03:10:39;14.70;99.90
57108;DHT22;42987;52.916;6.542;2022-09-09T03:13:08;14.70;99.90
57108;DHT22;42987;52.916;6.542;2022-09-09T03:15:35;14.70;99.90
57108;DHT22;42987;52.916;6.542;2022-09-09T03:18:01;14.70;99.90
57108;DHT22;42987;52.916;6.542;2022-09-09T03:20:31;14.80;99.90
57108;DHT22;42987;52.916;6.542;2022-09-09T03:22:58;14.70;99.90
57108;DHT22;42987;52.916;6.542;2022-09-09T03:25:25;14.70;99.90
57108;DHT22;42987;52.916;6.542;2022-09-09T03:27:52;14.70;99.90
57108;DHT22;42987;52.916;6.542;2022-09-09T03:30:24;14.70;99.90
57108;DHT22;42987;52.916;6.542;2022-09-09T03:32:50;14.80;99.90
57108;DHT22;42987;52.916;6.542;2022-09-09T03:35:16;14.70;99.90
57108;DHT22;42987;52.916;6.542;2022-09-09T03:37:42;14.70;99.90
57108;DHT22;42987;52.916;6.542;2022-09-09T03:40:08;14.70;99.90
57108;DHT22;42987;52.916;6.542;2022-09-09T03:42:36;14.70;99.90
57108;DHT22;42987;52.916;6.542;2022-09-09T03:45:04;14.70;99.90
57108;DHT22;42987;52.916;6.542;2022-09-09T03:47:30;14.70;99.90
57108;DHT22;42987;52.916;6.542;2022-09-09T03:49:56;14.70;99.90
57108;DHT22;42987;52.916;6.542;2022-09-09T03:52:21;14.70;99.90
57108;DHT22;42987;52.916;6.542;2022-09-09T03:54:51;14.70;99.90
57108;DHT22;42987;52.916;6.542;2022-09-09T03:57:17;14.70;99.90
57108;DHT22;42987;52.916;6.542;2022-09-09T03:59:43;14.70;99.90
57108;DHT22;42987;52.916;6.542;2022-09-09T04:02:09;14.60;99.90
57108;DHT22;42987;52.916;6.542;2022-09-09T04:04:38;14.70;99.90
57108;DHT22;42987;52.916;6.542;2022-09-09T04:07:04;14.70;99.90
57108;DHT22;42987;52.916;6.542;2022-09-09T04:09:32;14.60;99.90
57108;DHT22;42987;52.916;6.542;2022-09-09T04:11:58;14.70;99.90
57108;DHT22;42987;52.916;6.542;2022-09-09T04:14:24;14.70;99.90
57108;DHT22;42987;52.916;6.542;2022-09-09T04:16:54;14.70;99.90
57108;DHT22;42987;52.916;6.542;2022-09-09T04:19:21;14.60;99.90
57108;DHT22;42987;52.916;6.542;2022-09-09T04:21:47;14.70;99.90
57108;DHT22;42987;52.916;6.542;2022-09-09T04:24:16;14.70;99.90
57108;DHT22;42987;52.916;6.542;2022-09-09T04:26:42;14.60;99.90
57108;DHT22;42987;52.916;6.542;2022-09-09T04:29:08;14.60;99.90
57108;DHT22;42987;52.916;6.542;2022-09-09T04:31:34;14.60;99.90
57108;DHT22;42987;52.916;6.542;2022-09-09T04:34:00;14.60;99.90
57108;DHT22;42987;52.916;6.542;2022-09-09T04:36:32;14.60;99.90
57108;DHT22;42987;52.916;6.542;2022-09-09T04:38:58;14.60;99.90
57108;DHT22;42987;52.916;6.542;2022-09-09T04:41:24;14.60;99.90
57108;DHT22;42987;52.916;6.542;2022-09-09T04:43:50;14.60;99.90
57108;DHT22;42987;52.916;6.542;2022-09-09T04:46:20;14.60;99.90
57108;DHT22;42987;52.916;6.542;2022-09-09T04:48:46;14.60;99.90
57108;DHT22;42987;52.916;6.542;2022-09-09T04:51:13;14.60;99.90
57108;DHT22;42987;52.916;6.542;2022-09-09T04:53:42;14.60;99.90
57108;DHT22;42987;52.916;6.542;2022-09-09T04:56:16;14.50;99.90
57108;DHT22;42987;52.916;6.542;2022-09-09T04:58:42;14.50;99.90
57108;DHT22;42987;52.916;6.542;2022-09-09T05:01:19;14.50;99.90
57108;DHT22;42987;52.916;6.542;2022-09-09T05:03:46;14.50;99.90
57108;DHT22;42987;52.916;6.542;2022-09-09T05:06:14;14.50;99.90
57108;DHT22;42987;52.916;6.542;2022-09-09T05:08:47;14.50;99.90
57108;DHT22;42987;52.916;6.542;2022-09-09T05:11:15;14.50;99.90
57108;DHT22;42987;52.916;6.542;2022-09-09T05:13:45;14.50;99.90
57108;DHT22;42987;52.916;6.542;2022-09-09T05:16:12;14.40;99.90
57108;DHT22;42987;52.916;6.542;2022-09-09T05:18:39;14.40;99.90
57108;DHT22;42987;52.916;6.542;2022-09-09T05:21:15;14.40;99.90
57108;DHT22;42987;52.916;6.542;2022-09-09T05:23:41;14.40;99.90
57108;DHT22;42987;52.916;6.542;2022-09-09T05:26:11;14.30;99.90
57108;DHT22;42987;52.916;6.542;2022-09-09T05:28:37;14.40;99.90
57108;DHT22;42987;52.916;6.542;2022-09-09T05:31:08;14.30;99.90
57108;DHT22;42987;52.916;6.542;2022-09-09T05:33:35;14.30;99.90
57108;DHT22;42987;52.916;6.542;2022-09-09T05:36:04;14.30;99.90
57108;DHT22;42987;52.916;6.542;2022-09-09T05:38:31;14.30;99.90
57108;DHT22;42987;52.916;6.542;2022-09-09T05:40:59;14.30;99.90
57108;DHT22;42987;52.916;6.542;2022-09-09T05:43:26;14.30;99.90
57108;DHT22;42987;52.916;6.542;2022-09-09T05:46:08;14.30;99.90
57108;DHT22;42987;52.916;6.542;2022-09-09T05:48:35;14.30;99.90
57108;DHT22;42987;52.916;6.542;2022-09-09T05:51:03;14.30;99.90
57108;DHT22;42987;52.916;6.542;2022-09-09T05:53:30;14.30;99.90
57108;DHT22;42987;52.916;6.542;2022-09-09T05:56:05;14.30;99.90
57108;DHT22;42987;52.916;6.542;2022-09-09T05:58:39;14.30;99.90
57108;DHT22;42987;52.916;6.542;2022-09-09T06:01:13;14.30;99.90
57108;DHT22;42987;52.916;6.542;2022-09-09T06:03:41;14.30;99.90
57108;DHT22;42987;52.916;6.542;2022-09-09T06:06:09;14.30;99.90
57108;DHT22;42987;52.916;6.542;2022-09-09T06:08:40;14.30;99.90
57108;DHT22;42987;52.916;6.542;2022-09-09T06:11:12;14.40;99.90
57108;DHT22;42987;52.916;6.542;2022-09-09T06:13:41;14.40;99.90
57108;DHT22;42987;52.916;6.542;2022-09-09T06:16:16;14.30;99.90
57108;DHT22;42987;52.916;6.542;2022-09-09T06:18:43;14.50;99.90
57108;DHT22;42987;52.916;6.542;2022-09-09T06:21:17;14.40;99.90
57108;DHT22;42987;52.916;6.542;2022-09-09T06:23:43;14.50;99.90
57108;DHT22;42987;52.916;6.542;2022-09-09T06:26:15;14.50;99.90
57108;DHT22;42987;52.916;6.542;2022-09-09T06:28:43;14.50;99.90
57108;DHT22;42987;52.916;6.542;2022-09-09T06:31:12;14.50;99.90
57108;DHT22;42987;52.916;6.542;2022-09-09T06:33:40;14.50;99.90
57108;DHT22;42987;52.916;6.542;2022-09-09T06:36:37;14.60;99.90
57108;DHT22;42987;52.916;6.542;2022-09-09T06:39:03;14.60;99.90
57108;DHT22;42987;52.916;6.542;2022-09-09T06:41:31;14.60;99.90
57108;DHT22;42987;52.916;6.542;2022-09-09T06:43:57;14.70;99.90
57108;DHT22;42987;52.916;6.542;2022-09-09T06:46:27;14.70;99.90
57108;DHT22;42987;52.916;6.542;2022-09-09T06:48:58;14.70;99.90
57108;DHT22;42987;52.916;6.542;2022-09-09T06:51:30;14.80;99.90
57108;DHT22;42987;52.916;6.542;2022-09-09T06:53:58;14.80;99.90
57108;DHT22;42987;52.916;6.542;2022-09-09T06:56:30;14.70;99.90
57108;DHT22;42987;52.916;6.542;2022-09-09T06:58:58;14.80;99.90
57108;DHT22;42987;52.916;6.542;2022-09-09T07:01:32;14.90;99.90
57108;DHT22;42987;52.916;6.542;2022-09-09T07:03:59;14.90;99.90
57108;DHT22;42987;52.916;6.542;2022-09-09T07:06:30;14.80;99.90
57108;DHT22;42987;52.916;6.542;2022-09-09T07:09:00;15.00;99.90
57108;DHT22;42987;52.916;6.542;2022-09-09T07:11:34;15.00;99.90
57108;DHT22;42987;52.916;6.542;2022-09-09T07:14:00;15.00;99.90
57108;DHT22;42987;52.916;6.542;2022-09-09T07:16:27;15.10;99.90
57108;DHT22;42987;52.916;6.542;2022-09-09T07:18:54;15.10;99.90
57108;DHT22;42987;52.916;6.542;2022-09-09T07:21:25;15.20;99.90
57108;DHT22;42987;52.916;6.542;2022-09-09T07:23:52;15.30;99.90
57108;DHT22;42987;52.916;6.542;2022-09-09T07:26:20;15.30;99.90
57108;DHT22;42987;52.916;6.542;2022-09-09T07:28:46;15.40;99.90
57108;DHT22;42987;52.916;6.542;2022-09-09T07:31:21;15.60;99.90
57108;DHT22;42987;52.916;6.542;2022-09-09T07:33:48;15.80;99.90
57108;DHT22;42987;52.916;6.542;2022-09-09T07:36:22;15.80;99.90
57108;DHT22;42987;52.916;6.542;2022-09-09T07:38:51;15.90;99.90
57108;DHT22;42987;52.916;6.542;2022-09-09T07:41:23;15.90;99.90
57108;DHT22;42987;52.916;6.542;2022-09-09T07:43:49;15.90;99.90
57108;DHT22;42987;52.916;6.542;2022-09-09T07:46:18;15.90;99.90
57108;DHT22;42987;52.916;6.542;2022-09-09T07:48:54;16.00;99.90
57108;DHT22;42987;52.916;6.542;2022-09-09T07:51:24;16.10;99.90
57108;DHT22;42987;52.916;6.542;2022-09-09T07:53:59;16.20;99.90
57108;DHT22;42987;52.916;6.542;2022-09-09T07:56:26;16.30;99.90
57108;DHT22;42987;52.916;6.542;2022-09-09T07:58:53;16.50;99.90
57108;DHT22;42987;52.916;6.542;2022-09-09T08:01:31;16.70;99.90
57108;DHT22;42987;52.916;6.542;2022-09-09T08:04:11;16.70;99.90
57108;DHT22;42987;52.916;6.542;2022-09-09T08:06:49;16.90;99.90
57108;DHT22;42987;52.916;6.542;2022-09-09T08:09:15;17.00;99.90
57108;DHT22;42987;52.916;6.542;2022-09-09T08:11:42;17.00;99.90
57108;DHT22;42987;52.916;6.542;2022-09-09T08:14:09;17.10;99.90
57108;DHT22;42987;52.916;6.542;2022-09-09T08:16:40;17.20;99.90
57108;DHT22;42987;52.916;6.542;2022-09-09T08:19:10;17.40;99.90
57108;DHT22;42987;52.916;6.542;2022-09-09T08:21:38;17.60;99.90
57108;DHT22;42987;52.916;6.542;2022-09-09T08:24:07;17.70;99.90
57108;DHT22;42987;52.916;6.542;2022-09-09T08:26:36;17.80;99.90
57108;DHT22;42987;52.916;6.542;2022-09-09T08:29:04;17.80;99.90
57108;DHT22;42987;52.916;6.542;2022-09-09T08:31:37;17.80;99.90
57108;DHT22;42987;52.916;6.542;2022-09-09T08:34:08;17.80;99.90
57108;DHT22;42987;52.916;6.542;2022-09-09T08:36:43;17.80;99.90
57108;DHT22;42987;52.916;6.542;2022-09-09T08:39:10;17.80;99.90
57108;DHT22;42987;52.916;6.542;2022-09-09T08:47:31;17.60;99.90
57108;DHT22;42987;52.916;6.542;2022-09-09T08:50:26;17.70;99.90
57108;DHT22;42987;52.916;6.542;2022-09-09T08:53:19;17.80;99.90
57108;DHT22;42987;52.916;6.542;2022-09-09T08:55:52;18.00;99.90
57108;DHT22;42987;52.916;6.542;2022-09-09T08:58:21;18.20;99.90
57108;DHT22;42987;52.916;6.542;2022-09-09T09:12:40;18.50;99.90
57108;DHT22;42987;52.916;6.542;2022-09-09T09:15:19;18.60;99.90
57108;DHT22;42987;52.916;6.542;2022-09-09T09:17:46;18.60;99.90
57108;DHT22;42987;52.916;6.542;2022-09-09T09:20:15;18.70;99.90
57108;DHT22;42987;52.916;6.542;2022-09-09T09:22:50;18.80;99.90
57108;DHT22;42987;52.916;6.542;2022-09-09T09:25:23;18.70;99.90
57108;DHT22;42987;52.916;6.542;2022-09-09T09:28:12;18.60;99.90
57108;DHT22;42987;52.916;6.542;2022-09-09T09:35:58;18.40;99.90
57108;DHT22;42987;52.916;6.542;2022-09-09T09:38:27;18.40;99.90
57108;DHT22;42987;52.916;6.542;2022-09-09T09:40:58;18.60;99.90
57108;DHT22;42987;52.916;6.542;2022-09-09T09:43:33;18.70;99.90
57108;DHT22;42987;52.916;6.542;2022-09-09T09:46:00;18.90;99.90
57108;DHT22;42987;52.916;6.542;2022-09-09T09:48:27;18.90;99.90
57108;DHT22;42987;52.916;6.542;2022-09-09T09:51:03;18.90;99.90
57108;DHT22;42987;52.916;6.542;2022-09-09T09:53:33;19.00;99.90
57108;DHT22;42987;52.916;6.542;2022-09-09T09:56:00;19.20;99.90
57108;DHT22;42987;52.916;6.542;2022-09-09T09:58:30;19.30;99.90
57108;DHT22;42987;52.916;6.542;2022-09-09T10:00:58;19.30;99.90
57108;DHT22;42987;52.916;6.542;2022-09-09T10:03:29;19.10;99.90
57108;DHT22;42987;52.916;6.542;2022-09-09T10:05:56;19.20;99.90
57108;DHT22;42987;52.916;6.542;2022-09-09T10:08:23;19.20;99.90
57108;DHT22;42987;52.916;6.542;2022-09-09T10:19:00;19.20;99.90
57108;DHT22;42987;52.916;6.542;2022-09-09T10:21:52;19.30;99.90
57108;DHT22;42987;52.916;6.542;2022-09-09T10:30:20;19.80;99.90
57108;DHT22;42987;52.916;6.542;2022-09-09T10:38:47;19.60;99.90
57108;DHT22;42987;52.916;6.542;2022-09-09T10:47:07;19.60;99.90
57108;DHT22;42987;52.916;6.542;2022-09-09T10:55:53;20.20;99.90
57108;DHT22;42987;52.916;6.542;2022-09-09T10:58:30;20.30;99.90
57108;DHT22;42987;52.916;6.542;2022-09-09T11:04:01;20.10;99.90
57108;DHT22;42987;52.916;6.542;2022-09-09T11:06:34;20.00;99.90
57108;DHT22;42987;52.916;6.542;2022-09-09T11:09:02;19.90;99.90
57108;DHT22;42987;52.916;6.542;2022-09-09T11:11:51;19.80;99.90
57108;DHT22;42987;52.916;6.542;2022-09-09T11:14:41;19.90;99.90
57108;DHT22;42987;52.916;6.542;2022-09-09T11:17:18;19.80;99.90
57108;DHT22;42987;52.916;6.542;2022-09-09T11:19:45;19.70;99.90
57108;DHT22;42987;52.916;6.542;2022-09-09T11:22:32;19.70;99.90
57108;DHT22;42987;52.916;6.542;2022-09-09T11:25:21;19.60;99.90
57108;DHT22;42987;52.916;6.542;2022-09-09T11:38:47;19.70;99.90
57108;DHT22;42987;52.916;6.542;2022-09-09T11:41:14;19.80;99.90
57108;DHT22;42987;52.916;6.542;2022-09-09T11:46:08;19.70;99.90
57108;DHT22;42987;52.916;6.542;2022-09-09T11:48:45;19.60;99.90
57108;DHT22;42987;52.916;6.542;2022-09-09T11:59:23;19.40;99.90
57108;DHT22;42987;52.916;6.542;2022-09-09T12:04:41;19.20;99.90
57108;DHT22;42987;52.916;6.542;2022-09-09T12:10:38;19.30;99.90
57108;DHT22;42987;52.916;6.542;2022-09-09T12:12:44;19.50;99.90
57108;DHT22;42987;52.916;6.542;2022-09-09T12:20:15;19.90;99.90
57108;DHT22;42987;52.916;6.542;2022-09-09T12:28:47;20.20;99.90
57108;DHT22;42987;52.916;6.542;2022-09-09T12:34:10;20.30;99.90
57108;DHT22;42987;52.916;6.542;2022-09-09T12:36:37;20.30;99.90
57108;DHT22;42987;52.916;6.542;2022-09-09T12:39:32;20.20;99.90
57108;DHT22;42987;52.916;6.542;2022-09-09T12:41:59;20.10;99.90
57108;DHT22;42987;52.916;6.542;2022-09-09T12:44:26;20.10;99.90
57108;DHT22;42987;52.916;6.542;2022-09-09T12:46:54;20.00;99.90
57108;DHT22;42987;52.916;6.542;2022-09-09T12:49:35;20.00;99.90
57108;DHT22;42987;52.916;6.542;2022-09-09T12:52:15;20.10;99.90
57108;DHT22;42987;52.916;6.542;2022-09-09T12:54:45;20.20;99.90
57108;DHT22;42987;52.916;6.542;2022-09-09T12:57:16;20.30;99.90
57108;DHT22;42987;52.916;6.542;2022-09-09T12:59:46;20.20;99.90
57108;DHT22;42987;52.916;6.542;2022-09-09T13:02:26;19.90;99.90
57108;DHT22;42987;52.916;6.542;2022-09-09T13:04:53;19.90;99.90
57108;DHT22;42987;52.916;6.542;2022-09-09T13:07:20;19.80;99.90
57108;DHT22;42987;52.916;6.542;2022-09-09T13:09:48;19.70;99.90
57108;DHT22;42987;52.916;6.542;2022-09-09T13:12:21;19.70;99.90
57108;DHT22;42987;52.916;6.542;2022-09-09T13:14:53;19.80;99.90
57108;DHT22;42987;52.916;6.542;2022-09-09T13:17:22;19.90;99.90
57108;DHT22;42987;52.916;6.542;2022-09-09T13:19:49;19.90;99.90
57108;DHT22;42987;52.916;6.542;2022-09-09T13:22:35;19.90;99.90
57108;DHT22;42987;52.916;6.542;2022-09-09T13:27:41;19.80;99.90
57108;DHT22;42987;52.916;6.542;2022-09-09T13:33:17;19.60;99.90
57108;DHT22;42987;52.916;6.542;2022-09-09T13:35:53;19.60;99.90
57108;DHT22;42987;52.916;6.542;2022-09-09T13:38:20;19.50;99.90
57108;DHT22;42987;52.916;6.542;2022-09-09T13:41:00;19.60;99.90
57108;DHT22;42987;52.916;6.542;2022-09-09T13:43:43;19.70;99.90
57108;DHT22;42987;52.916;6.542;2022-09-09T13:51:43;20.00;99.90
57108;DHT22;42987;52.916;6.542;2022-09-09T13:54:13;20.00;99.90
57108;DHT22;42987;52.916;6.542;2022-09-09T13:56:43;19.80;99.90
57108;DHT22;42987;52.916;6.542;2022-09-09T13:59:20;19.60;99.90
57108;DHT22;42987;52.916;6.542;2022-09-09T14:01:47;19.40;99.90
57108;DHT22;42987;52.916;6.542;2022-09-09T14:04:14;19.10;99.90
57108;DHT22;42987;52.916;6.542;2022-09-09T14:06:41;18.90;99.90
57108;DHT22;42987;52.916;6.542;2022-09-09T14:09:10;18.90;99.90
57108;DHT22;42987;52.916;6.542;2022-09-09T14:11:37;18.90;99.90
57108;DHT22;42987;52.916;6.542;2022-09-09T14:14:03;19.10;99.90
57108;DHT22;42987;52.916;6.542;2022-09-09T14:16:29;19.30;99.90
57108;DHT22;42987;52.916;6.542;2022-09-09T14:18:55;19.40;99.90
57108;DHT22;42987;52.916;6.542;2022-09-09T14:21:25;19.60;99.90
57108;DHT22;42987;52.916;6.542;2022-09-09T14:23:51;19.70;99.90
57108;DHT22;42987;52.916;6.542;2022-09-09T14:26:21;19.70;99.90
57108;DHT22;42987;52.916;6.542;2022-09-09T14:28:48;19.80;99.90
57108;DHT22;42987;52.916;6.542;2022-09-09T14:31:14;19.70;99.90
57108;DHT22;42987;52.916;6.542;2022-09-09T14:33:40;19.70;99.90
57108;DHT22;42987;52.916;6.542;2022-09-09T14:36:09;19.70;99.90
57108;DHT22;42987;52.916;6.542;2022-09-09T14:38:37;19.60;99.90
57108;DHT22;42987;52.916;6.542;2022-09-09T14:41:10;19.60;99.90
57108;DHT22;42987;52.916;6.542;2022-09-09T14:43:40;19.60;99.90
57108;DHT22;42987;52.916;6.542;2022-09-09T14:46:11;19.50;99.90
57108;DHT22;42987;52.916;6.542;2022-09-09T14:48:37;19.50;99.90
57108;DHT22;42987;52.916;6.542;2022-09-09T14:51:14;19.50;99.90
57108;DHT22;42987;52.916;6.542;2022-09-09T14:53:41;19.50;99.90
57108;DHT22;42987;52.916;6.542;2022-09-09T14:56:10;19.50;99.90
57108;DHT22;42987;52.916;6.542;2022-09-09T14:58:39;19.50;99.90
57108;DHT22;42987;52.916;6.542;2022-09-09T15:01:08;19.50;99.90
57108;DHT22;42987;52.916;6.542;2022-09-09T15:03:40;19.40;99.90
57108;DHT22;42987;52.916;6.542;2022-09-09T15:06:12;19.30;99.90
57108;DHT22;42987;52.916;6.542;2022-09-09T15:08:41;19.30;99.90
57108;DHT22;42987;52.916;6.542;2022-09-09T15:11:07;19.40;99.90
57108;DHT22;42987;52.916;6.542;2022-09-09T15:13:34;19.40;99.90
57108;DHT22;42987;52.916;6.542;2022-09-09T15:16:08;19.50;99.90
57108;DHT22;42987;52.916;6.542;2022-09-09T15:18:34;19.50;99.90
57108;DHT22;42987;52.916;6.542;2022-09-09T15:21:17;19.60;99.90
57108;DHT22;42987;52.916;6.542;2022-09-09T15:23:45;19.60;99.90
57108;DHT22;42987;52.916;6.542;2022-09-09T15:26:11;19.60;99.90
57108;DHT22;42987;52.916;6.542;2022-09-09T15:28:39;19.60;99.90
57108;DHT22;42987;52.916;6.542;2022-09-09T15:31:35;19.50;99.90
57108;DHT22;42987;52.916;6.542;2022-09-09T15:34:08;19.50;99.90
57108;DHT22;42987;52.916;6.542;2022-09-09T15:39:13;19.30;99.90
57108;DHT22;42987;52.916;6.542;2022-09-09T15:41:44;19.30;99.90
57108;DHT22;42987;52.916;6.542;2022-09-09T15:44:11;19.20;99.90
57108;DHT22;42987;52.916;6.542;2022-09-09T15:46:42;19.20;99.90
57108;DHT22;42987;52.916;6.542;2022-09-09T15:49:19;19.10;99.90
57108;DHT22;42987;52.916;6.542;2022-09-09T15:51:46;18.90;99.90
57108;DHT22;42987;52.916;6.542;2022-09-09T15:54:21;18.90;99.90
57108;DHT22;42987;52.916;6.542;2022-09-09T15:56:57;18.80;99.90
57108;DHT22;42987;52.916;6.542;2022-09-09T15:59:24;18.80;99.90
57108;DHT22;42987;52.916;6.542;2022-09-09T16:01:50;18.70;99.90
57108;DHT22;42987;52.916;6.542;2022-09-09T16:04:18;18.70;99.90
57108;DHT22;42987;52.916;6.542;2022-09-09T16:06:53;18.60;99.90
57108;DHT22;42987;52.916;6.542;2022-09-09T16:09:19;18.60;99.90
57108;DHT22;42987;52.916;6.542;2022-09-09T16:11:45;18.50;99.90
57108;DHT22;42987;52.916;6.542;2022-09-09T16:14:12;18.50;99.90
57108;DHT22;42987;52.916;6.542;2022-09-09T16:16:38;18.40;99.90
57108;DHT22;42987;52.916;6.542;2022-09-09T16:19:08;18.40;99.90
57108;DHT22;42987;52.916;6.542;2022-09-09T16:21:46;18.40;99.90
57108;DHT22;42987;52.916;6.542;2022-09-09T16:24:14;18.30;99.90
57108;DHT22;42987;52.916;6.542;2022-09-09T16:26:45;18.30;99.90
57108;DHT22;42987;52.916;6.542;2022-09-09T16:29:13;18.30;99.90
57108;DHT22;42987;52.916;6.542;2022-09-09T16:31:40;18.40;99.90
57108;DHT22;42987;52.916;6.542;2022-09-09T16:34:07;18.40;99.90
57108;DHT22;42987;52.916;6.542;2022-09-09T16:36:34;18.30;99.90
57108;DHT22;42987;52.916;6.542;2022-09-09T16:39:16;18.40;99.90
57108;DHT22;42987;52.916;6.542;2022-09-09T16:41:43;18.40;99.90
57108;DHT22;42987;52.916;6.542;2022-09-09T16:44:11;18.40;99.90
57108;DHT22;42987;52.916;6.542;2022-09-09T16:46:40;18.40;99.90
57108;DHT22;42987;52.916;6.542;2022-09-09T16:49:09;18.30;99.90
57108;DHT22;42987;52.916;6.542;2022-09-09T16:51:43;18.30;99.90
57108;DHT22;42987;52.916;6.542;2022-09-09T16:54:10;18.30;99.90
57108;DHT22;42987;52.916;6.542;2022-09-09T16:56:38;18.40;99.90
57108;DHT22;42987;52.916;6.542;2022-09-09T16:59:12;18.40;99.90
57108;DHT22;42987;52.916;6.542;2022-09-09T17:01:40;18.40;99.90
57108;DHT22;42987;52.916;6.542;2022-09-09T17:04:15;18.30;99.90
57108;DHT22;42987;52.916;6.542;2022-09-09T17:06:46;18.30;99.90
57108;DHT22;42987;52.916;6.542;2022-09-09T17:09:15;18.30;99.90
57108;DHT22;42987;52.916;6.542;2022-09-09T17:11:41;18.30;99.90
57108;DHT22;42987;52.916;6.542;2022-09-09T17:14:08;18.30;99.90
57108;DHT22;42987;52.916;6.542;2022-09-09T17:16:36;18.30;99.90
57108;DHT22;42987;52.916;6.542;2022-09-09T17:19:08;18.20;99.90
57108;DHT22;42987;52.916;6.542;2022-09-09T17:21:34;18.20;99.90
57108;DHT22;42987;52.916;6.542;2022-09-09T17:24:01;18.20;99.90
57108;DHT22;42987;52.916;6.542;2022-09-09T17:26:29;18.20;99.90
57108;DHT22;42987;52.916;6.542;2022-09-09T17:28:56;18.20;99.90
57108;DHT22;42987;52.916;6.542;2022-09-09T17:31:24;18.20;99.90
57108;DHT22;42987;52.916;6.542;2022-09-09T17:33:51;18.20;99.90
57108;DHT22;42987;52.916;6.542;2022-09-09T17:36:19;18.20;99.90
57108;DHT22;42987;52.916;6.542;2022-09-09T17:38:45;18.20;99.90
57108;DHT22;42987;52.916;6.542;2022-09-09T17:43:43;18.10;99.90
57108;DHT22;42987;52.916;6.542;2022-09-09T17:46:14;18.10;99.90
57108;DHT22;42987;52.916;6.542;2022-09-09T17:48:41;18.00;99.90
57108;DHT22;42987;52.916;6.542;2022-09-09T17:51:11;18.00;99.90
57108;DHT22;42987;52.916;6.542;2022-09-09T17:53:47;18.00;99.90
57108;DHT22;42987;52.916;6.542;2022-09-09T17:56:16;17.90;99.90
57108;DHT22;42987;52.916;6.542;2022-09-09T17:58:43;17.90;99.90
57108;DHT22;42987;52.916;6.542;2022-09-09T18:01:37;17.70;99.90
57108;DHT22;42987;52.916;6.542;2022-09-09T18:04:08;17.60;99.90
57108;DHT22;42987;52.916;6.542;2022-09-09T18:06:37;17.60;99.90
57108;DHT22;42987;52.916;6.542;2022-09-09T18:09:05;17.50;99.90
57108;DHT22;42987;52.916;6.542;2022-09-09T18:11:38;17.50;99.90
57108;DHT22;42987;52.916;6.542;2022-09-09T18:14:09;17.40;99.90
57108;DHT22;42987;52.916;6.542;2022-09-09T18:16:38;17.30;99.90
57108;DHT22;42987;52.916;6.542;2022-09-09T18:19:06;17.40;99.90
57108;DHT22;42987;52.916;6.542;2022-09-09T18:21:34;17.40;99.90
57108;DHT22;42987;52.916;6.542;2022-09-09T18:24:05;17.30;99.90